»·PEaware :: N51254 KSNA-KSNA

N51254 :: KSNA-KSNA

FLIGHT INFORMATION

Flight Status: Arrived
Operator: Privately registered:
United States
More flights under this callsign
Pilot: Hasan B. (9605)
Aircraft: CESSNA 172 SKYHAWK
(C172)
More flights by this aircraft type
Origin: KSNA John Wayne-Orange Co
United States
Destination: KSNA John Wayne-Orange Co
United States
More flights between these airports :: More routes between these airports
Route: SLI
File this flight plan on PilotEdge
Remarks:
Altitude:
(Current/Filed)
3,000ft
Speed:
(Current/Filed)
100kts
Departed: 07-Nov-18 10:24 AM
Arrived: 07-Nov-18 10:57 AM
Distance/Time
Traveled:
0nm/0:33
Distance/Time
To Go:
Arrived

Flight Plot

Page will automatically refresh every two minutes.


Map Options




Map Legend


Flown Route
Filed Route
Departure Airport
Arrival Airport
Navaid (VOR, NDB)
Fix

Horizontal Profiles

Position Reports

Time Latitude Longitude Heading Altitude Ground
Speed
07-Nov-18 09:53 33.676080 -117.870909 219 60ft 0kts
07-Nov-18 09:54 33.676080 -117.870909 219 60ft 0kts
07-Nov-18 09:55 33.676080 -117.870909 219 60ft 0kts
07-Nov-18 09:56 33.676080 -117.870909 219 60ft 0kts
07-Nov-18 09:57 33.676058 -117.870926 209 60ft 0kts
07-Nov-18 09:58 33.676058 -117.870926 209 60ft 0kts
07-Nov-18 09:59 33.676058 -117.870926 209 60ft 0kts
07-Nov-18 10:00 33.676058 -117.870926 209 60ft 0kts
07-Nov-18 10:01 33.676058 -117.870926 209 60ft 0kts
07-Nov-18 10:02 33.676058 -117.870926 209 60ft 0kts
07-Nov-18 10:03 33.676058 -117.870926 209 60ft 0kts
07-Nov-18 10:04 33.676058 -117.870926 209 60ft 0kts
07-Nov-18 10:05 33.676058 -117.870926 209 60ft 0kts
07-Nov-18 10:06 33.676058 -117.870926 209 60ft 0kts
07-Nov-18 10:07 33.676058 -117.870926 209 60ft 0kts
07-Nov-18 10:08 33.676058 -117.870926 209 60ft 0kts
07-Nov-18 10:09 33.676058 -117.870926 209 60ft 0kts
07-Nov-18 10:10 33.676058 -117.870926 209 60ft 0kts
07-Nov-18 10:11 33.676058 -117.870926 209 60ft 0kts
07-Nov-18 10:12 33.676058 -117.870926 209 60ft 0kts
07-Nov-18 10:13 33.676058 -117.870926 209 60ft 0kts
07-Nov-18 10:14 33.676058 -117.870926 209 60ft 0kts
07-Nov-18 10:15 33.676058 -117.870926 209 60ft 0kts
07-Nov-18 10:16 33.676058 -117.870926 209 60ft 0kts
07-Nov-18 10:17 33.676058 -117.870926 209 60ft 0kts
07-Nov-18 10:18 33.676058 -117.870926 209 60ft 0kts
07-Nov-18 10:19 33.676058 -117.870926 209 60ft 0kts
07-Nov-18 10:20 33.676058 -117.870926 209 60ft 0kts
07-Nov-18 10:21 33.676058 -117.870926 209 60ft 0kts
07-Nov-18 10:22 33.676058 -117.870926 209 60ft 0kts
07-Nov-18 10:23 33.675945 -117.870861 124 60ft 3kts
07-Nov-18 10:24 33.678515 -117.868558 31 60ft 22kts
07-Nov-18 10:25 33.681258 -117.866688 91 60ft 0kts
07-Nov-18 10:26 33.681258 -117.866688 91 60ft 0kts
07-Nov-18 10:27 33.675926 -117.868819 211 146ft 78kts
07-Nov-18 10:28 33.664101 -117.889664 242 1320ft 77kts
07-Nov-18 10:29 33.653116 -117.914577 238 1998ft 102kts
07-Nov-18 10:30 33.638408 -117.945270 241 2032ft 108kts
07-Nov-18 10:31 33.625390 -117.976794 239 2073ft 105kts
07-Nov-18 10:32 33.636838 -117.995330 9 2556ft 93kts
07-Nov-18 10:33 33.662370 -117.990031 11 2964ft 98kts
07-Nov-18 10:34 33.689125 -117.984397 7 2978ft 96kts
07-Nov-18 10:35 33.714731 -117.977710 16 2966ft 94kts
07-Nov-18 10:36 33.739739 -117.969960 17 2917ft 98kts
07-Nov-18 10:37 33.764760 -117.963817 7 3042ft 89kts
07-Nov-18 10:38 33.790376 -117.959567 6 3071ft 96kts
07-Nov-18 10:39 33.816066 -117.952048 22 3066ft 97kts
07-Nov-18 10:40 33.837400 -117.941934 23 3024ft 98kts
07-Nov-18 10:41 33.866945 -117.929233 23 3038ft 96kts
07-Nov-18 10:42 33.887503 -117.918516 22 3036ft 96kts
07-Nov-18 10:43 33.917019 -117.905277 23 3028ft 98kts
07-Nov-18 10:44 33.942305 -117.893246 10 3013ft 98kts
07-Nov-18 10:45 33.964034 -117.884138 31 3011ft 93kts
07-Nov-18 10:46 33.976610 -117.860850 113 3015ft 101kts
07-Nov-18 10:47 33.961525 -117.825510 114 2960ft 104kts
07-Nov-18 10:48 33.946569 -117.806275 168 2974ft 100kts
07-Nov-18 10:49 33.914425 -117.800318 172 2988ft 99kts
07-Nov-18 10:50 33.891633 -117.796885 165 3040ft 98kts
07-Nov-18 10:51 33.865630 -117.788048 116 3095ft 112kts
07-Nov-18 10:52 33.853595 -117.757341 168 2990ft 100kts
07-Nov-18 10:53 33.834231 -117.774341 194 2963ft 92kts
07-Nov-18 10:54 33.808826 -117.784546 201 2874ft 107kts
07-Nov-18 10:55 33.785487 -117.799936 208 2395ft 95kts
07-Nov-18 10:56 33.762559 -117.813747 211 1942ft 92kts
07-Nov-18 10:57 33.739681 -117.827961 212 1428ft 95kts
07-Nov-18 10:58 33.716362 -117.843443 208 881ft 94kts
07-Nov-18 10:59 33.693127 -117.857712 211 441ft 79kts
07-Nov-18 11:00 33.678114 -117.867310 206 60ft 19kts
07-Nov-18 11:01 33.678099 -117.868360 300 60ft 0kts

Navigation Log

Ident Type
1. KSNA Airport
2. SLI Navaid
3. KSNA Airport